createdAt,value
2018-11-12T00:01:00.124Z,5.90
2018-11-12T00:03:28.462Z,7.47
2018-11-12T00:05:57.750Z,6.77
2018-11-12T00:08:26.036Z,6.00
2018-11-12T00:10:54.353Z,7.50
2018-11-12T00:13:22.660Z,5.77
2018-11-12T00:15:50.956Z,5.83
2018-11-12T00:18:19.272Z,6.57
2018-11-12T00:20:47.568Z,6.27
2018-11-12T00:23:15.885Z,6.57
2018-11-12T00:25:44.186Z,4.87
2018-11-12T00:28:12.496Z,5.80
2018-11-12T00:30:40.792Z,7.23
2018-11-12T00:33:09.113Z,6.60
2018-11-12T00:35:37.408Z,5.83
2018-11-12T00:38:06.027Z,5.10
2018-11-12T00:40:34.349Z,4.10
2018-11-12T00:43:02.674Z,7.13
2018-11-12T00:45:31.026Z,4.77
2018-11-12T00:47:59.378Z,4.93
2018-11-12T00:50:27.668Z,5.17
2018-11-12T00:52:55.986Z,4.60
2018-11-12T00:55:24.284Z,5.00
2018-11-12T00:57:52.658Z,4.13
2018-11-12T01:00:21.068Z,6.43
2018-11-12T01:02:50.180Z,5.20
2018-11-12T01:05:19.107Z,5.60
2018-11-12T01:07:48.069Z,5.40
2018-11-12T01:10:17.450Z,2.87
2018-11-12T01:12:46.061Z,4.97
2018-11-12T01:15:15.655Z,3.67
2018-11-12T01:17:44.173Z,3.93
2018-11-12T01:20:14.776Z,4.70
2018-11-12T01:22:43.361Z,5.73
2018-11-12T01:25:12.529Z,5.40
2018-11-12T01:27:41.656Z,5.30
2018-11-12T01:30:12.569Z,4.60
2018-11-12T01:32:41.280Z,3.50
2018-11-12T01:35:10.869Z,4.37
2018-11-12T01:37:39.197Z,5.53
2018-11-12T01:40:08.949Z,3.63
2018-11-12T01:42:37.303Z,3.63
2018-11-12T01:45:08.103Z,7.33
2018-11-12T01:47:36.443Z,4.27
2018-11-12T01:50:06.068Z,4.00
2018-11-12T01:52:34.453Z,5.87
2018-11-12T01:55:02.752Z,5.53
2018-11-12T01:57:31.193Z,7.00
2018-11-12T01:59:59.497Z,6.70
2018-11-12T02:02:27.804Z,5.87
2018-11-12T02:04:56.129Z,5.13
2018-11-12T02:07:24.441Z,4.57
2018-11-12T02:09:52.732Z,4.73
2018-11-12T02:12:21.046Z,5.27
2018-11-12T02:14:49.356Z,5.60
2018-11-12T02:17:17.662Z,4.00
2018-11-12T02:19:45.972Z,4.67
2018-11-12T02:22:14.277Z,3.30
2018-11-12T02:24:42.599Z,3.47
2018-11-12T02:27:10.900Z,4.10
2018-11-12T02:29:39.223Z,4.50
2018-11-12T02:32:07.511Z,3.43
2018-11-12T02:34:35.836Z,4.23
2018-11-12T02:37:04.158Z,4.00
2018-11-12T02:39:32.527Z,5.27
2018-11-12T02:42:00.778Z,3.10
2018-11-12T02:44:29.109Z,2.70
2018-11-12T02:46:57.408Z,3.20
2018-11-12T02:49:25.720Z,2.93
2018-11-12T02:51:54.025Z,3.30
2018-11-12T02:54:22.342Z,4.50
2018-11-12T02:56:50.643Z,3.33
2018-11-12T02:59:19.004Z,4.00
2018-11-12T03:01:47.321Z,4.03
2018-11-12T03:04:15.949Z,4.60
2018-11-12T03:06:44.259Z,3.63
2018-11-12T03:09:13.752Z,2.33
2018-11-12T03:11:42.529Z,4.53
2018-11-12T03:14:10.958Z,3.03
2018-11-12T03:16:39.597Z,2.43
2018-11-12T03:19:07.925Z,2.20
2018-11-12T03:21:36.226Z,3.83
2018-11-12T03:24:05.108Z,4.80
2018-11-12T03:26:33.401Z,3.43
2018-11-12T03:29:01.730Z,2.50
2018-11-12T03:31:30.021Z,4.63
2018-11-12T03:33:58.337Z,3.73
2018-11-12T03:36:26.628Z,2.20
2018-11-12T03:38:54.948Z,2.17
2018-11-12T03:41:23.246Z,2.23
2018-11-12T03:43:51.580Z,2.50
2018-11-12T03:46:19.880Z,2.13
2018-11-12T03:48:48.221Z,4.53
2018-11-12T03:51:16.530Z,3.27
2018-11-12T03:53:44.846Z,3.97
2018-11-12T03:56:13.141Z,4.87
2018-11-12T03:58:41.465Z,3.17
2018-11-12T04:01:09.767Z,3.33
2018-11-12T04:03:38.079Z,3.03
2018-11-12T04:06:06.420Z,2.57
2018-11-12T04:08:34.714Z,3.10
2018-11-12T04:11:03.032Z,3.13
2018-11-12T04:13:31.323Z,2.63
2018-11-12T04:15:59.649Z,3.40
2018-11-12T04:18:27.957Z,4.83
2018-11-12T04:20:56.272Z,1.90
2018-11-12T04:23:24.562Z,3.20
2018-11-12T04:25:52.977Z,3.67
2018-11-12T04:28:21.305Z,3.13
2018-11-12T04:30:49.637Z,1.90
2018-11-12T04:33:17.932Z,2.10
2018-11-12T04:35:46.244Z,3.33
2018-11-12T04:38:14.565Z,2.30
2018-11-12T04:40:42.863Z,2.10
2018-11-12T04:43:11.190Z,4.57
2018-11-12T04:45:39.506Z,2.70
2018-11-12T04:48:07.831Z,2.23
2018-11-12T04:50:36.130Z,2.37
2018-11-12T04:53:04.756Z,2.30
2018-11-12T04:55:33.054Z,2.93
2018-11-12T04:58:01.377Z,2.63
2018-11-12T05:00:29.683Z,2.77
2018-11-12T05:02:57.996Z,2.60
2018-11-12T05:05:27.428Z,1.70
2018-11-12T05:07:55.745Z,2.50
2018-11-12T05:10:25.098Z,2.03
2018-11-12T05:12:54.002Z,2.37
2018-11-12T05:15:23.178Z,3.17
2018-11-12T05:17:51.581Z,4.43
2018-11-12T05:20:23.304Z,2.10
2018-11-12T05:22:51.639Z,5.80
2018-11-12T05:25:19.962Z,2.57
2018-11-12T05:27:48.260Z,3.17
2018-11-12T05:30:19.513Z,3.07
2018-11-12T05:32:47.832Z,2.77
2018-11-12T05:35:17.488Z,2.20
2018-11-12T05:37:46.091Z,2.03
2018-11-12T05:40:15.965Z,3.30
2018-11-12T05:42:44.553Z,3.43
2018-11-12T05:45:13.773Z,3.43
2018-11-12T05:47:42.068Z,3.43
2018-11-12T05:50:14.528Z,2.50
2018-11-12T05:52:44.407Z,3.80
2018-11-12T05:55:14.151Z,3.37
2018-11-12T05:57:43.212Z,4.23
2018-11-12T06:00:12.952Z,2.90
2018-11-12T06:02:41.506Z,4.70
2018-11-12T06:05:11.784Z,3.93
2018-11-12T06:07:40.093Z,2.50
2018-11-12T06:10:10.914Z,2.90
2018-11-12T06:12:39.444Z,2.80
2018-11-12T06:15:08.963Z,4.70
2018-11-12T06:17:37.314Z,5.63
2018-11-12T06:20:12.980Z,2.80
2018-11-12T06:22:41.324Z,3.90
2018-11-12T06:25:11.066Z,4.13
2018-11-12T06:27:39.377Z,3.70
2018-11-12T06:30:10.093Z,4.37
2018-11-12T06:32:38.735Z,4.57
2018-11-12T06:35:08.169Z,5.03
2018-11-12T06:37:36.717Z,5.73
2018-11-12T06:40:05.961Z,6.10
2018-11-12T06:42:34.554Z,7.20
2018-11-12T06:45:02.874Z,4.57
2018-11-12T06:47:31.164Z,4.80
2018-11-12T06:49:59.491Z,4.30
2018-11-12T06:52:27.797Z,4.80
2018-11-12T06:54:56.125Z,8.37
2018-11-12T06:57:24.485Z,12.03
2018-11-12T06:59:52.820Z,6.23
2018-11-12T07:02:21.133Z,4.70
2018-11-12T07:04:49.448Z,2.97
2018-11-12T07:07:17.749Z,3.00
2018-11-12T07:09:46.070Z,5.77
2018-11-12T07:12:14.400Z,2.10
2018-11-12T07:14:42.676Z,4.93
2018-11-12T07:17:10.973Z,3.07
2018-11-12T07:19:39.289Z,2.93
2018-11-12T07:22:07.610Z,4.03
2018-11-12T07:24:36.139Z,6.53
2018-11-12T07:27:04.481Z,3.57
2018-11-12T07:29:32.786Z,3.60
2018-11-12T07:32:01.127Z,3.60
2018-11-12T07:34:29.422Z,3.23
2018-11-12T07:36:57.760Z,3.53
2018-11-12T07:39:26.086Z,2.90
2018-11-12T07:41:54.457Z,2.50
2018-11-12T07:44:22.737Z,2.27
2018-11-12T07:46:51.074Z,3.80
2018-11-12T07:49:19.378Z,3.33
2018-11-12T07:51:47.708Z,4.97
2018-11-12T07:54:16.016Z,2.73
2018-11-12T07:56:44.346Z,4.27
2018-11-12T07:59:12.682Z,4.10
2018-11-12T08:01:40.994Z,2.53
2018-11-12T08:04:09.321Z,2.63
2018-11-12T08:06:37.630Z,4.20
2018-11-12T08:09:07.941Z,2.00
2018-11-12T08:11:36.181Z,2.40
2018-11-12T08:14:04.533Z,5.63
2018-11-12T08:16:32.824Z,3.33
2018-11-12T08:19:01.159Z,4.77
2018-11-12T08:21:29.500Z,2.53
2018-11-12T08:23:58.075Z,4.73
2018-11-12T08:26:26.592Z,2.70
2018-11-12T08:28:56.022Z,3.33
2018-11-12T08:31:24.330Z,2.60
2018-11-12T08:33:52.658Z,2.60
2018-11-12T08:36:21.032Z,5.10
2018-11-12T08:38:49.612Z,2.10
2018-11-12T08:41:17.938Z,3.70
2018-11-12T08:43:46.244Z,3.87
2018-11-12T08:46:14.691Z,2.07
2018-11-12T08:48:42.934Z,1.70
2018-11-12T08:51:11.235Z,5.03
2018-11-12T08:53:39.546Z,2.13
2018-11-12T08:56:07.865Z,1.40
2018-11-12T08:58:36.197Z,2.93
2018-11-12T09:01:04.532Z,3.23
2018-11-12T09:03:32.846Z,3.73
2018-11-12T09:06:01.195Z,4.97
2018-11-12T09:08:29.544Z,1.80
2018-11-12T09:10:57.893Z,2.10
2018-11-12T09:13:26.218Z,2.13
2018-11-12T09:15:54.584Z,1.40
2018-11-12T09:18:22.850Z,2.90
2018-11-12T09:20:51.173Z,1.20
2018-11-12T09:23:19.469Z,1.10
2018-11-12T09:25:47.779Z,1.10
2018-11-12T09:28:16.081Z,1.50
2018-11-12T09:30:45.596Z,5.40
2018-11-12T09:33:12.713Z,0.80
2018-11-12T09:35:41.068Z,2.07
2018-11-12T09:38:09.385Z,1.27
2018-11-12T09:40:38.782Z,1.13
2018-11-12T09:43:07.378Z,0.80
2018-11-12T09:45:35.992Z,1.23
2018-11-12T09:48:04.277Z,1.10
2018-11-12T09:50:32.601Z,1.47
2018-11-12T09:53:01.876Z,1.50
2018-11-12T09:55:31.203Z,0.70
2018-11-12T09:58:02.846Z,0.50
2018-11-12T10:00:31.329Z,1.10
2018-11-12T10:03:00.406Z,1.27
2018-11-12T10:05:29.574Z,0.70
2018-11-12T10:08:02.164Z,1.97
2018-11-12T10:10:43.653Z,1.20
2018-11-12T10:13:15.265Z,1.60
2018-11-12T10:15:44.646Z,0.60
2018-11-12T10:20:38.189Z,0.60
2018-11-12T10:23:06.529Z,1.33
2018-11-12T10:25:34.849Z,0.93
2018-11-12T10:28:03.152Z,1.80
2018-11-12T10:30:31.482Z,1.17
2018-11-12T10:32:59.787Z,0.83
2018-11-12T10:35:28.089Z,0.60
2018-11-12T10:37:56.407Z,1.07
2018-11-12T10:40:25.375Z,1.47
2018-11-12T10:42:53.790Z,0.70
2018-11-12T10:45:22.078Z,0.70
2018-11-12T10:47:51.520Z,0.57
2018-11-12T10:50:20.020Z,1.40
2018-11-12T10:52:48.375Z,2.73
2018-11-12T10:55:18.225Z,1.23
2018-11-12T10:57:47.063Z,1.30
2018-11-12T11:00:24.202Z,1.23
2018-11-12T11:02:58.669Z,0.60
2018-11-12T11:05:27.000Z,1.53
2018-11-12T11:07:55.442Z,1.37
2018-11-12T11:10:25.140Z,0.50
2018-11-12T11:12:53.806Z,0.40
2018-11-12T11:18:16.715Z,1.63
2018-11-12T11:20:47.885Z,1.10
2018-11-12T11:23:18.322Z,1.63
2018-11-12T11:25:48.898Z,0.70
2018-11-12T11:28:20.201Z,0.80
2018-11-12T11:30:50.974Z,0.70
2018-11-12T11:33:19.285Z,1.30
2018-11-12T11:35:47.613Z,0.63
2018-11-12T11:38:15.920Z,1.20
2018-11-12T11:40:44.276Z,0.77
2018-11-12T11:43:12.575Z,1.43
2018-11-12T11:45:40.894Z,1.00
2018-11-12T11:48:09.241Z,0.67
2018-11-12T11:50:37.525Z,2.10
2018-11-12T11:53:05.973Z,1.57
2018-11-12T11:55:34.339Z,1.60
2018-11-12T11:58:02.660Z,1.07
2018-11-12T12:00:30.973Z,2.93
2018-11-12T12:02:59.826Z,2.20
2018-11-12T12:05:28.680Z,2.33
2018-11-12T12:07:57.550Z,1.60
2018-11-12T12:10:25.878Z,0.90
2018-11-12T12:12:54.312Z,2.73
2018-11-12T12:15:23.425Z,1.40
2018-11-12T12:17:51.715Z,2.00
2018-11-12T12:20:23.049Z,1.70
2018-11-12T12:22:51.605Z,1.30
2018-11-12T12:25:20.222Z,1.20
2018-11-12T12:27:48.906Z,1.23
2018-11-12T12:30:32.931Z,3.77
2018-11-12T12:33:01.242Z,1.63
2018-11-12T12:35:30.186Z,1.63
2018-11-12T12:37:58.555Z,0.70
2018-11-12T12:40:26.861Z,1.10
2018-11-12T12:42:55.175Z,1.03
2018-11-12T12:45:25.029Z,2.67
2018-11-12T12:47:53.741Z,0.60
2018-11-12T12:50:22.042Z,1.60
2018-11-12T12:52:50.345Z,2.30
2018-11-12T12:55:18.960Z,1.63
2018-11-12T12:57:47.665Z,0.80
2018-11-12T13:00:18.089Z,1.23
2018-11-12T13:02:46.417Z,1.97
2018-11-12T13:05:14.719Z,0.57
2018-11-12T13:07:43.029Z,1.97
2018-11-12T13:10:13.529Z,1.03
2018-11-12T13:12:42.033Z,1.60
2018-11-12T13:15:12.114Z,0.70
2018-11-12T13:17:40.631Z,0.90
2018-11-12T13:20:10.309Z,1.47
2018-11-12T13:22:38.617Z,2.00
2018-11-12T13:25:07.695Z,1.93
2018-11-12T13:27:36.110Z,3.50
2018-11-12T13:30:06.221Z,2.33
2018-11-12T13:32:34.521Z,1.00
2018-11-12T13:35:02.826Z,1.13
2018-11-12T13:37:31.134Z,0.63
2018-11-12T13:39:59.430Z,0.77
2018-11-12T13:42:27.753Z,1.40
2018-11-12T13:44:56.030Z,0.73
2018-11-12T13:47:24.337Z,0.90
2018-11-12T13:49:52.617Z,2.63
2018-11-12T13:52:20.921Z,1.80
2018-11-12T13:54:49.201Z,1.90
2018-11-12T13:57:17.506Z,1.43
2018-11-12T13:59:45.785Z,1.40
2018-11-12T14:02:14.093Z,1.63
2018-11-12T14:04:42.377Z,1.40
2018-11-12T14:07:10.693Z,1.20
2018-11-12T14:09:39.109Z,2.17
2018-11-12T14:12:07.429Z,1.70
2018-11-12T14:14:35.716Z,1.60
2018-11-12T14:17:04.037Z,0.70
2018-11-12T14:19:32.327Z,1.27
2018-11-12T14:22:00.634Z,3.80
2018-11-12T14:24:29.093Z,1.53
2018-11-12T14:26:57.693Z,2.37
2018-11-12T14:29:25.977Z,2.50
2018-11-12T14:31:54.293Z,1.33
2018-11-12T14:34:22.577Z,1.50
2018-11-12T14:36:50.882Z,1.60
2018-11-12T14:39:19.195Z,0.97
2018-11-12T14:41:47.485Z,0.90
2018-11-12T14:44:15.794Z,0.80
2018-11-12T14:46:44.158Z,1.77
2018-11-12T14:49:12.466Z,0.67
2018-11-12T14:51:40.755Z,3.27
2018-11-12T14:54:09.073Z,2.70
2018-11-12T14:56:37.369Z,2.10
2018-11-12T14:59:06.101Z,2.00
2018-11-12T15:01:34.456Z,2.30
2018-11-12T15:04:02.751Z,3.30
2018-11-12T15:06:31.044Z,2.60
2018-11-12T15:08:59.578Z,3.00
2018-11-12T15:11:27.820Z,3.07
2018-11-12T15:13:56.133Z,3.50
2018-11-12T15:16:24.421Z,2.40
2018-11-12T15:18:52.742Z,4.60
2018-11-12T15:21:21.022Z,1.27
2018-11-12T15:23:49.333Z,1.13
2018-11-12T15:26:17.660Z,2.40
2018-11-12T15:28:45.986Z,2.47
2018-11-12T15:31:14.293Z,1.40
2018-11-12T15:33:42.609Z,2.83
2018-11-12T15:36:10.901Z,2.47
2018-11-12T15:38:39.229Z,2.83
2018-11-12T15:41:07.523Z,4.60
2018-11-12T15:43:35.970Z,2.17
2018-11-12T15:46:04.261Z,2.17
2018-11-12T15:48:32.594Z,3.03
2018-11-12T15:51:00.994Z,2.03
2018-11-12T15:53:29.301Z,2.53
2018-11-12T15:55:57.601Z,1.87
2018-11-12T15:58:25.921Z,2.77
2018-11-12T16:00:54.293Z,1.52
2018-11-12T16:06:00.570Z,6.03
2018-11-12T16:08:30.488Z,2.57
2018-11-12T16:11:00.429Z,2.40
2018-11-12T16:13:30.393Z,2.07
2018-11-12T16:16:00.265Z,0.97
2018-11-12T16:18:30.212Z,4.37
2018-11-12T16:21:00.154Z,2.33
2018-11-12T16:23:30.137Z,2.57
2018-11-12T16:26:00.033Z,1.40
2018-11-12T16:35:51.070Z,1.73
2018-11-12T16:38:19.426Z,3.47
2018-11-12T16:40:47.721Z,2.10
2018-11-12T16:43:16.045Z,1.60
2018-11-12T16:45:44.360Z,4.23
2018-11-12T16:48:12.693Z,4.07
2018-11-12T16:50:40.985Z,2.30
2018-11-12T16:53:09.330Z,2.40
2018-11-12T16:55:37.617Z,1.80
2018-11-12T16:58:05.933Z,1.77
2018-11-12T17:00:34.229Z,2.20
2018-11-12T17:03:02.525Z,4.70
2018-11-12T17:05:31.005Z,3.43
2018-11-12T17:07:59.297Z,3.60
2018-11-12T17:10:27.969Z,4.30
2018-11-12T17:12:56.268Z,2.00
2018-11-12T17:15:24.600Z,5.13
2018-11-12T17:17:52.893Z,4.77
2018-11-12T17:20:21.889Z,2.90
2018-11-12T17:22:50.269Z,2.87
2018-11-12T17:25:19.068Z,2.87
2018-11-12T17:27:47.706Z,3.97
2018-11-12T17:30:18.062Z,2.37
2018-11-12T17:32:46.810Z,4.83
2018-11-12T17:35:16.353Z,8.53
2018-11-12T17:37:44.647Z,5.00
2018-11-12T17:40:17.520Z,17.30
2018-11-12T17:42:46.873Z,14.87
2018-11-12T17:45:16.412Z,6.30
2018-11-12T17:47:45.992Z,15.40
2018-11-12T17:50:14.320Z,16.47
2018-11-12T17:52:42.609Z,12.10
2018-11-12T17:55:11.686Z,9.47
2018-11-12T17:57:39.981Z,6.57
2018-11-12T18:00:11.433Z,4.93
2018-11-12T18:02:39.833Z,4.43
2018-11-12T18:05:08.869Z,3.20
2018-11-12T18:07:37.429Z,4.43
2018-11-12T18:10:06.669Z,10.50
2018-11-12T18:12:35.289Z,3.93
2018-11-12T18:15:03.668Z,5.13
2018-11-12T18:17:32.257Z,6.57
2018-11-12T18:20:00.618Z,38.77
2018-11-12T18:22:28.927Z,40.50
2018-11-12T18:24:57.281Z,23.20
2018-11-12T18:27:25.598Z,24.50
2018-11-12T18:29:53.961Z,11.47
2018-11-12T18:32:22.262Z,10.53
2018-11-12T18:34:50.617Z,5.47
2018-11-12T18:37:18.905Z,5.67
2018-11-12T18:39:47.253Z,5.73
2018-11-12T18:42:15.681Z,6.20
2018-11-12T18:44:44.797Z,3.87
2018-11-12T18:47:13.097Z,7.40
2018-11-12T18:49:41.450Z,3.43
2018-11-12T18:52:09.805Z,4.30
2018-11-12T18:54:38.190Z,5.80
2018-11-12T18:57:06.485Z,6.13
2018-11-12T18:59:34.849Z,5.83
2018-11-12T19:02:03.149Z,4.60
2018-11-12T19:04:31.502Z,4.97
2018-11-12T19:06:59.854Z,7.07
2018-11-12T19:09:28.159Z,27.80
2018-11-12T19:11:56.507Z,20.27
2018-11-12T19:14:24.802Z,7.37
2018-11-12T19:16:53.153Z,7.87
2018-11-12T19:19:21.441Z,11.10
2018-11-12T19:21:49.800Z,6.43
2018-11-12T19:24:18.101Z,5.20
2018-11-12T19:26:46.450Z,7.63
2018-11-12T19:29:14.745Z,7.40
2018-11-12T19:31:43.093Z,12.63
2018-11-12T19:34:11.387Z,7.87
2018-11-12T19:36:39.738Z,7.17
2018-11-12T19:39:08.645Z,12.20
2018-11-12T19:41:37.002Z,6.23
2018-11-12T19:44:05.554Z,7.43
2018-11-12T19:46:34.237Z,6.47
2018-11-12T19:49:02.545Z,7.80
2018-11-12T19:51:30.987Z,11.10
2018-11-12T19:53:59.201Z,6.53
2018-11-12T19:56:27.570Z,8.33
2018-11-12T19:58:55.962Z,13.73
2018-11-12T20:01:24.475Z,84.43
2018-11-12T20:03:53.026Z,96.77
2018-11-12T20:06:21.369Z,54.57
2018-11-12T20:08:49.662Z,55.50
2018-11-12T20:11:18.002Z,33.20
2018-11-12T20:13:46.344Z,24.47
2018-11-12T20:16:14.630Z,7.23
2018-11-12T20:18:43.105Z,5.37
2018-11-12T20:21:11.400Z,12.93
2018-11-12T20:23:39.869Z,8.60
2018-11-12T20:26:08.305Z,6.87
2018-11-12T20:28:36.650Z,10.97
2018-11-12T20:31:04.937Z,9.33
2018-11-12T20:33:33.273Z,6.90
2018-11-12T20:36:01.560Z,6.63
2018-11-12T20:38:29.908Z,5.40
2018-11-12T20:40:58.204Z,5.80
2018-11-12T20:43:26.492Z,6.40
2018-11-12T20:45:54.833Z,5.73
2018-11-12T20:48:23.121Z,3.70
2018-11-12T20:50:51.566Z,6.47
2018-11-12T20:53:19.830Z,4.63
2018-11-12T20:55:48.260Z,3.77
2018-11-12T20:58:16.557Z,3.33
2018-11-12T21:00:44.901Z,3.63
2018-11-12T21:03:13.199Z,3.43
2018-11-12T21:05:41.538Z,4.03
2018-11-12T21:08:09.833Z,7.93
2018-11-12T21:10:38.197Z,3.50
2018-11-12T21:13:06.540Z,3.67
2018-11-12T21:15:34.864Z,7.80
2018-11-12T21:18:03.161Z,6.97
2018-11-12T21:20:31.489Z,7.20
2018-11-12T21:22:59.786Z,11.03
2018-11-12T21:25:28.332Z,8.67
2018-11-12T21:27:56.631Z,11.37
2018-11-12T21:30:27.034Z,9.57
2018-11-12T21:32:55.367Z,6.00
2018-11-12T21:35:23.740Z,11.07
2018-11-12T21:37:53.177Z,11.80
2018-11-12T21:40:22.906Z,8.50
2018-11-12T21:42:51.245Z,10.77
2018-11-12T21:45:21.092Z,7.03
2018-11-12T21:47:49.388Z,5.90
2018-11-12T21:50:19.071Z,6.70
2018-11-12T21:52:47.365Z,5.20
2018-11-12T21:55:15.701Z,5.03
2018-11-12T21:57:44.369Z,5.30
2018-11-12T22:00:15.852Z,9.43
2018-11-12T22:02:45.010Z,9.17
2018-11-12T22:05:13.540Z,8.93
2018-11-12T22:07:41.889Z,11.47
2018-11-12T22:10:12.019Z,7.73
2018-11-12T22:12:40.981Z,9.13
2018-11-12T22:15:10.306Z,9.20
2018-11-12T22:17:38.621Z,8.17
2018-11-12T22:20:08.277Z,10.17
2018-11-12T22:22:36.885Z,20.10
2018-11-12T22:25:06.382Z,9.03
2018-11-12T22:27:34.691Z,9.03
2018-11-12T22:30:03.025Z,11.67
2018-11-12T22:32:31.361Z,10.23
2018-11-12T22:34:59.653Z,13.73
2018-11-12T22:37:28.017Z,10.83
2018-11-12T22:39:56.309Z,6.60
2018-11-12T22:42:24.629Z,7.03
2018-11-12T22:44:53.142Z,6.23
2018-11-12T22:47:21.678Z,4.33
2018-11-12T22:49:50.033Z,4.73
2018-11-12T22:52:18.357Z,3.93
2018-11-12T22:54:46.673Z,3.57
2018-11-12T22:57:14.985Z,3.17
2018-11-12T22:59:43.399Z,3.17
2018-11-12T23:02:11.677Z,4.97
2018-11-12T23:04:39.969Z,4.33
2018-11-12T23:07:08.284Z,5.13
2018-11-12T23:09:36.579Z,3.70
2018-11-12T23:12:05.293Z,5.87
2018-11-12T23:14:33.589Z,6.43
2018-11-12T23:17:01.901Z,6.33
2018-11-12T23:19:30.211Z,6.30
2018-11-12T23:21:58.521Z,9.67
2018-11-12T23:24:26.813Z,8.27
2018-11-12T23:26:55.123Z,5.33
2018-11-12T23:29:23.405Z,4.67
2018-11-12T23:31:51.709Z,5.53
2018-11-12T23:34:20.034Z,5.23
2018-11-12T23:36:48.334Z,7.23
2018-11-12T23:39:16.656Z,8.93
2018-11-12T23:41:44.973Z,4.53
2018-11-12T23:44:13.306Z,9.07
2018-11-12T23:46:41.646Z,6.37
2018-11-12T23:49:09.928Z,9.03
2018-11-12T23:51:38.237Z,5.90
2018-11-12T23:54:06.546Z,7.93
2018-11-12T23:56:34.886Z,7.40
2018-11-12T23:59:03.178Z,8.17
